sensor_id;sensor_type;location;lat;lon;timestamp;P1;durP1;ratioP1;P2;durP2;ratioP2
33066;SDS011;19428;49.024;8.366;2022-09-24T00:01:48;86.88;;;82.78;;
33066;SDS011;19428;49.024;8.366;2022-09-24T00:04:14;90.53;;;86.15;;
33066;SDS011;19428;49.024;8.366;2022-09-24T00:06:41;89.93;;;85.68;;
33066;SDS011;19428;49.024;8.366;2022-09-24T00:09:08;90.38;;;86.05;;
33066;SDS011;19428;49.024;8.366;2022-09-24T00:11:35;92.35;;;87.90;;
33066;SDS011;19428;49.024;8.366;2022-09-24T00:14:02;89.43;;;85.18;;
33066;SDS011;19428;49.024;8.366;2022-09-24T00:16:28;86.20;;;82.05;;
33066;SDS011;19428;49.024;8.366;2022-09-24T00:18:57;83.78;;;79.85;;
33066;SDS011;19428;49.024;8.366;2022-09-24T00:21:24;84.60;;;80.63;;
33066;SDS011;19428;49.024;8.366;2022-09-24T00:24:01;81.25;;;77.38;;
33066;SDS011;19428;49.024;8.366;2022-09-24T00:26:28;78.55;;;74.78;;
33066;SDS011;19428;49.024;8.366;2022-09-24T00:29:14;84.05;;;80.05;;
33066;SDS011;19428;49.024;8.366;2022-09-24T00:31:44;85.90;;;81.93;;
33066;SDS011;19428;49.024;8.366;2022-09-24T00:34:10;82.90;;;79.00;;
33066;SDS011;19428;49.024;8.366;2022-09-24T00:36:36;84.93;;;80.90;;
33066;SDS011;19428;49.024;8.366;2022-09-24T00:39:02;83.65;;;79.75;;
33066;SDS011;19428;49.024;8.366;2022-09-24T00:41:29;83.50;;;79.47;;
33066;SDS011;19428;49.024;8.366;2022-09-24T00:43:57;82.80;;;78.88;;
33066;SDS011;19428;49.024;8.366;2022-09-24T00:46:27;79.95;;;76.20;;
33066;SDS011;19428;49.024;8.366;2022-09-24T00:49:11;78.50;;;74.85;;
33066;SDS011;19428;49.024;8.366;2022-09-24T00:51:38;87.18;;;83.03;;
33066;SDS011;19428;49.024;8.366;2022-09-24T00:54:11;82.18;;;78.32;;
33066;SDS011;19428;49.024;8.366;2022-09-24T00:56:40;83.78;;;79.88;;
33066;SDS011;19428;49.024;8.366;2022-09-24T00:59:09;82.72;;;78.80;;
33066;SDS011;19428;49.024;8.366;2022-09-24T01:01:37;83.15;;;79.18;;
33066;SDS011;19428;49.024;8.366;2022-09-24T01:04:03;79.50;;;75.80;;
33066;SDS011;19428;49.024;8.366;2022-09-24T01:06:30;87.13;;;83.03;;
33066;SDS011;19428;49.024;8.366;2022-09-24T01:08:55;81.95;;;78.13;;
33066;SDS011;19428;49.024;8.366;2022-09-24T01:17:20;81.38;;;77.45;;
33066;SDS011;19428;49.024;8.366;2022-09-24T01:20:01;80.43;;;76.72;;
33066;SDS011;19428;49.024;8.366;2022-09-24T01:22:56;79.85;;;76.10;;
33066;SDS011;19428;49.024;8.366;2022-09-24T01:29:12;84.10;;;80.22;;
33066;SDS011;19428;49.024;8.366;2022-09-24T01:35:25;81.50;;;77.78;;
33066;SDS011;19428;49.024;8.366;2022-09-24T01:37:52;82.82;;;78.97;;
33066;SDS011;19428;49.024;8.366;2022-09-24T01:40:23;89.13;;;84.95;;
33066;SDS011;19428;49.024;8.366;2022-09-24T01:42:50;86.78;;;82.72;;
33066;SDS011;19428;49.024;8.366;2022-09-24T01:45:18;86.15;;;82.15;;
33066;SDS011;19428;49.024;8.366;2022-09-24T01:47:45;89.32;;;85.15;;
33066;SDS011;19428;49.024;8.366;2022-09-24T01:50:11;90.50;;;86.35;;
33066;SDS011;19428;49.024;8.366;2022-09-24T01:52:42;85.80;;;81.75;;
33066;SDS011;19428;49.024;8.366;2022-09-24T01:55:16;82.88;;;79.07;;
33066;SDS011;19428;49.024;8.366;2022-09-24T01:57:49;82.65;;;78.88;;
33066;SDS011;19428;49.024;8.366;2022-09-24T02:00:20;86.15;;;82.18;;
33066;SDS011;19428;49.024;8.366;2022-09-24T02:02:56;87.05;;;83.05;;
33066;SDS011;19428;49.024;8.366;2022-09-24T02:05:56;85.20;;;81.30;;
33066;SDS011;19428;49.024;8.366;2022-09-24T02:08:32;85.57;;;81.57;;
33066;SDS011;19428;49.024;8.366;2022-09-24T02:16:29;92.75;;;88.38;;
33066;SDS011;19428;49.024;8.366;2022-09-24T02:18:59;90.20;;;85.93;;
33066;SDS011;19428;49.024;8.366;2022-09-24T02:21:29;86.28;;;82.18;;
33066;SDS011;19428;49.024;8.366;2022-09-24T02:23:59;94.50;;;89.93;;
33066;SDS011;19428;49.024;8.366;2022-09-24T02:26:38;85.88;;;81.90;;
33066;SDS011;19428;49.024;8.366;2022-09-24T02:29:03;93.47;;;89.05;;
33066;SDS011;19428;49.024;8.366;2022-09-24T02:31:34;92.35;;;87.95;;
33066;SDS011;19428;49.024;8.366;2022-09-24T02:34:05;97.18;;;92.65;;
33066;SDS011;19428;49.024;8.366;2022-09-24T02:36:51;90.05;;;85.85;;
33066;SDS011;19428;49.024;8.366;2022-09-24T02:39:19;92.10;;;87.80;;
33066;SDS011;19428;49.024;8.366;2022-09-24T02:41:45;92.32;;;88.05;;
33066;SDS011;19428;49.024;8.366;2022-09-24T02:44:16;92.07;;;87.82;;
33066;SDS011;19428;49.024;8.366;2022-09-24T02:46:43;90.63;;;86.28;;
33066;SDS011;19428;49.024;8.366;2022-09-24T02:49:10;91.82;;;87.57;;
33066;SDS011;19428;49.024;8.366;2022-09-24T02:51:36;96.38;;;87.45;;
33066;SDS011;19428;49.024;8.366;2022-09-24T02:54:02;95.72;;;91.28;;
33066;SDS011;19428;49.024;8.366;2022-09-24T02:56:29;95.68;;;91.18;;
33066;SDS011;19428;49.024;8.366;2022-09-24T02:58:54;94.35;;;89.85;;
33066;SDS011;19428;49.024;8.366;2022-09-24T03:01:21;96.80;;;92.25;;
33066;SDS011;19428;49.024;8.366;2022-09-24T03:03:47;98.00;;;93.38;;
33066;SDS011;19428;49.024;8.366;2022-09-24T03:06:13;91.65;;;87.38;;
33066;SDS011;19428;49.024;8.366;2022-09-24T03:08:42;95.28;;;90.78;;
33066;SDS011;19428;49.024;8.366;2022-09-24T03:11:08;93.32;;;88.95;;
33066;SDS011;19428;49.024;8.366;2022-09-24T03:13:35;93.53;;;89.20;;
33066;SDS011;19428;49.024;8.366;2022-09-24T03:16:02;93.25;;;88.78;;
33066;SDS011;19428;49.024;8.366;2022-09-24T03:18:28;96.97;;;92.50;;
33066;SDS011;19428;49.024;8.366;2022-09-24T03:20:54;90.95;;;86.70;;
33066;SDS011;19428;49.024;8.366;2022-09-24T03:23:28;93.97;;;89.57;;
33066;SDS011;19428;49.024;8.366;2022-09-24T03:25:54;92.40;;;88.00;;
33066;SDS011;19428;49.024;8.366;2022-09-24T03:28:20;95.22;;;90.65;;
33066;SDS011;19428;49.024;8.366;2022-09-24T03:30:46;88.82;;;84.55;;
33066;SDS011;19428;49.024;8.366;2022-09-24T03:33:24;86.45;;;82.32;;
33066;SDS011;19428;49.024;8.366;2022-09-24T03:36:07;89.95;;;85.63;;
33066;SDS011;19428;49.024;8.366;2022-09-24T03:38:38;88.60;;;84.40;;
33066;SDS011;19428;49.024;8.366;2022-09-24T03:41:05;89.35;;;85.10;;
33066;SDS011;19428;49.024;8.366;2022-09-24T03:43:32;92.38;;;88.07;;
33066;SDS011;19428;49.024;8.366;2022-09-24T03:45:58;88.28;;;83.95;;
33066;SDS011;19428;49.024;8.366;2022-09-24T03:48:24;90.88;;;86.32;;
33066;SDS011;19428;49.024;8.366;2022-09-24T03:50:51;94.38;;;89.72;;
33066;SDS011;19428;49.024;8.366;2022-09-24T03:53:17;95.55;;;90.80;;
33066;SDS011;19428;49.024;8.366;2022-09-24T03:58:10;93.25;;;88.72;;
33066;SDS011;19428;49.024;8.366;2022-09-24T04:00:37;91.72;;;87.32;;
33066;SDS011;19428;49.024;8.366;2022-09-24T04:03:02;93.35;;;88.82;;
33066;SDS011;19428;49.024;8.366;2022-09-24T04:05:29;89.68;;;85.32;;
33066;SDS011;19428;49.024;8.366;2022-09-24T04:07:55;89.93;;;85.63;;
33066;SDS011;19428;49.024;8.366;2022-09-24T04:10:21;94.00;;;89.43;;
33066;SDS011;19428;49.024;8.366;2022-09-24T04:12:48;88.38;;;83.90;;
33066;SDS011;19428;49.024;8.366;2022-09-24T04:15:14;92.55;;;88.05;;
33066;SDS011;19428;49.024;8.366;2022-09-24T04:17:48;90.72;;;86.15;;
33066;SDS011;19428;49.024;8.366;2022-09-24T04:20:24;91.65;;;87.30;;
33066;SDS011;19428;49.024;8.366;2022-09-24T04:22:52;90.45;;;86.25;;
33066;SDS011;19428;49.024;8.366;2022-09-24T04:25:19;99.40;;;94.70;;
33066;SDS011;19428;49.024;8.366;2022-09-24T04:27:50;91.82;;;87.55;;
33066;SDS011;19428;49.024;8.366;2022-09-24T04:30:21;87.72;;;83.55;;
33066;SDS011;19428;49.024;8.366;2022-09-24T04:32:47;92.72;;;88.38;;
33066;SDS011;19428;49.024;8.366;2022-09-24T04:35:15;92.35;;;88.10;;
33066;SDS011;19428;49.024;8.366;2022-09-24T04:37:43;96.10;;;91.60;;
33066;SDS011;19428;49.024;8.366;2022-09-24T04:40:09;99.15;;;94.50;;
33066;SDS011;19428;49.024;8.366;2022-09-24T04:42:36;96.32;;;91.70;;
33066;SDS011;19428;49.024;8.366;2022-09-24T04:45:04;92.32;;;87.97;;
33066;SDS011;19428;49.024;8.366;2022-09-24T04:47:31;90.85;;;86.47;;
33066;SDS011;19428;49.024;8.366;2022-09-24T04:49:57;92.13;;;87.65;;
33066;SDS011;19428;49.024;8.366;2022-09-24T04:52:25;89.03;;;84.72;;
33066;SDS011;19428;49.024;8.366;2022-09-24T04:54:53;89.35;;;85.07;;
33066;SDS011;19428;49.024;8.366;2022-09-24T04:57:21;87.10;;;83.03;;
33066;SDS011;19428;49.024;8.366;2022-09-24T04:59:47;90.25;;;85.95;;
33066;SDS011;19428;49.024;8.366;2022-09-24T05:02:12;91.70;;;87.22;;
33066;SDS011;19428;49.024;8.366;2022-09-24T05:04:38;86.90;;;82.70;;
33066;SDS011;19428;49.024;8.366;2022-09-24T05:07:04;90.95;;;86.50;;
33066;SDS011;19428;49.024;8.366;2022-09-24T05:09:29;89.82;;;85.55;;
33066;SDS011;19428;49.024;8.366;2022-09-24T05:11:56;95.10;;;90.43;;
33066;SDS011;19428;49.024;8.366;2022-09-24T05:14:22;95.45;;;90.75;;
33066;SDS011;19428;49.024;8.366;2022-09-24T05:16:48;90.13;;;85.75;;
33066;SDS011;19428;49.024;8.366;2022-09-24T05:19:15;91.65;;;87.15;;
33066;SDS011;19428;49.024;8.366;2022-09-24T05:21:41;86.88;;;82.68;;
33066;SDS011;19428;49.024;8.366;2022-09-24T05:24:07;87.45;;;83.22;;
33066;SDS011;19428;49.024;8.366;2022-09-24T05:26:33;87.05;;;82.80;;
33066;SDS011;19428;49.024;8.366;2022-09-24T05:29:17;89.40;;;85.07;;
33066;SDS011;19428;49.024;8.366;2022-09-24T05:31:43;89.22;;;84.95;;
33066;SDS011;19428;49.024;8.366;2022-09-24T05:34:08;90.22;;;85.97;;
33066;SDS011;19428;49.024;8.366;2022-09-24T05:36:34;89.13;;;85.07;;
33066;SDS011;19428;49.024;8.366;2022-09-24T05:39:00;99.85;;;95.20;;
33066;SDS011;19428;49.024;8.366;2022-09-24T05:41:26;91.45;;;87.30;;
33066;SDS011;19428;49.024;8.366;2022-09-24T05:43:51;99.13;;;94.43;;
33066;SDS011;19428;49.024;8.366;2022-09-24T05:46:17;93.72;;;89.38;;
33066;SDS011;19428;49.024;8.366;2022-09-24T05:48:42;97.30;;;92.75;;
33066;SDS011;19428;49.024;8.366;2022-09-24T05:51:08;93.68;;;89.30;;
33066;SDS011;19428;49.024;8.366;2022-09-24T05:53:33;91.35;;;87.05;;
33066;SDS011;19428;49.024;8.366;2022-09-24T05:55:59;91.38;;;87.10;;
33066;SDS011;19428;49.024;8.366;2022-09-24T05:58:25;95.88;;;91.40;;
33066;SDS011;19428;49.024;8.366;2022-09-24T06:00:51;93.82;;;89.45;;
33066;SDS011;19428;49.024;8.366;2022-09-24T06:03:17;100.80;;;96.13;;
33066;SDS011;19428;49.024;8.366;2022-09-24T06:05:47;97.13;;;92.57;;
33066;SDS011;19428;49.024;8.366;2022-09-24T06:08:14;94.57;;;90.20;;
33066;SDS011;19428;49.024;8.366;2022-09-24T06:10:41;97.20;;;92.72;;
33066;SDS011;19428;49.024;8.366;2022-09-24T06:13:09;95.03;;;90.57;;
33066;SDS011;19428;49.024;8.366;2022-09-24T06:15:36;101.95;;;97.15;;
33066;SDS011;19428;49.024;8.366;2022-09-24T06:18:02;102.80;;;98.00;;
33066;SDS011;19428;49.024;8.366;2022-09-24T06:20:28;104.82;;;99.90;;
33066;SDS011;19428;49.024;8.366;2022-09-24T06:22:54;101.93;;;97.07;;
33066;SDS011;19428;49.024;8.366;2022-09-24T06:25:21;99.22;;;94.45;;
33066;SDS011;19428;49.024;8.366;2022-09-24T06:27:52;97.78;;;92.97;;
33066;SDS011;19428;49.024;8.366;2022-09-24T06:30:24;95.60;;;90.87;;
33066;SDS011;19428;49.024;8.366;2022-09-24T06:33:11;96.57;;;91.78;;
33066;SDS011;19428;49.024;8.366;2022-09-24T06:35:38;100.00;;;95.05;;
33066;SDS011;19428;49.024;8.366;2022-09-24T06:38:06;101.30;;;96.30;;
33066;SDS011;19428;49.024;8.366;2022-09-24T06:40:35;96.68;;;91.88;;
33066;SDS011;19428;49.024;8.366;2022-09-24T06:43:00;91.95;;;87.40;;
33066;SDS011;19428;49.024;8.366;2022-09-24T06:45:26;80.78;;;77.05;;
33066;SDS011;19428;49.024;8.366;2022-09-24T06:47:59;73.13;;;69.82;;
33066;SDS011;19428;49.024;8.366;2022-09-24T06:50:26;71.63;;;68.45;;
33066;SDS011;19428;49.024;8.366;2022-09-24T06:52:54;69.05;;;66.05;;
33066;SDS011;19428;49.024;8.366;2022-09-24T06:55:20;65.07;;;62.25;;
33066;SDS011;19428;49.024;8.366;2022-09-24T06:57:46;68.35;;;65.35;;
33066;SDS011;19428;49.024;8.366;2022-09-24T07:00:12;76.65;;;73.25;;
33066;SDS011;19428;49.024;8.366;2022-09-24T07:02:39;61.47;;;58.88;;
33066;SDS011;19428;49.024;8.366;2022-09-24T07:05:05;63.58;;;60.88;;
33066;SDS011;19428;49.024;8.366;2022-09-24T07:07:32;65.00;;;62.15;;
33066;SDS011;19428;49.024;8.366;2022-09-24T07:09:58;59.00;;;56.55;;
33066;SDS011;19428;49.024;8.366;2022-09-24T07:12:30;56.75;;;54.42;;
33066;SDS011;19428;49.024;8.366;2022-09-24T07:14:57;57.42;;;55.03;;
33066;SDS011;19428;49.024;8.366;2022-09-24T07:17:23;63.17;;;60.47;;
33066;SDS011;19428;49.024;8.366;2022-09-24T07:19:49;68.40;;;65.50;;
33066;SDS011;19428;49.024;8.366;2022-09-24T07:22:15;69.22;;;66.30;;
33066;SDS011;19428;49.024;8.366;2022-09-24T07:24:40;72.18;;;69.07;;
33066;SDS011;19428;49.024;8.366;2022-09-24T07:27:06;71.97;;;68.88;;
33066;SDS011;19428;49.024;8.366;2022-09-24T07:29:32;71.22;;;68.07;;
33066;SDS011;19428;49.024;8.366;2022-09-24T07:31:58;77.32;;;73.95;;
33066;SDS011;19428;49.024;8.366;2022-09-24T07:34:24;74.45;;;71.15;;
33066;SDS011;19428;49.024;8.366;2022-09-24T07:36:49;69.53;;;66.43;;
33066;SDS011;19428;49.024;8.366;2022-09-24T07:39:15;54.90;;;52.60;;
33066;SDS011;19428;49.024;8.366;2022-09-24T07:41:41;53.10;;;50.92;;
33066;SDS011;19428;49.024;8.366;2022-09-24T07:44:07;48.63;;;46.65;;
33066;SDS011;19428;49.024;8.366;2022-09-24T07:46:33;46.10;;;44.22;;
33066;SDS011;19428;49.024;8.366;2022-09-24T07:48:59;51.80;;;49.72;;
33066;SDS011;19428;49.024;8.366;2022-09-24T07:51:25;49.00;;;47.03;;
33066;SDS011;19428;49.024;8.366;2022-09-24T07:53:52;50.03;;;47.97;;
33066;SDS011;19428;49.024;8.366;2022-09-24T07:56:21;49.50;;;47.50;;
33066;SDS011;19428;49.024;8.366;2022-09-24T07:58:48;51.15;;;49.03;;
33066;SDS011;19428;49.024;8.366;2022-09-24T08:01:17;56.20;;;53.88;;
33066;SDS011;19428;49.024;8.366;2022-09-24T08:03:43;56.60;;;54.28;;
33066;SDS011;19428;49.024;8.366;2022-09-24T08:06:12;51.97;;;49.85;;
33066;SDS011;19428;49.024;8.366;2022-09-24T08:08:38;54.33;;;52.10;;
33066;SDS011;19428;49.024;8.366;2022-09-24T08:11:04;55.42;;;53.00;;
33066;SDS011;19428;49.024;8.366;2022-09-24T08:13:30;60.47;;;57.28;;
33066;SDS011;19428;49.024;8.366;2022-09-24T08:15:57;58.28;;;55.55;;
33066;SDS011;19428;49.024;8.366;2022-09-24T08:18:24;59.35;;;56.80;;
33066;SDS011;19428;49.024;8.366;2022-09-24T08:20:49;63.55;;;60.70;;
33066;SDS011;19428;49.024;8.366;2022-09-24T08:23:15;61.60;;;58.80;;
33066;SDS011;19428;49.024;8.366;2022-09-24T08:25:40;58.83;;;56.17;;
33066;SDS011;19428;49.024;8.366;2022-09-24T08:28:07;54.50;;;52.05;;
33066;SDS011;19428;49.024;8.366;2022-09-24T08:30:36;56.95;;;54.38;;
33066;SDS011;19428;49.024;8.366;2022-09-24T08:33:03;50.13;;;47.92;;
33066;SDS011;19428;49.024;8.366;2022-09-24T08:35:31;42.70;;;40.90;;
33066;SDS011;19428;49.024;8.366;2022-09-24T08:38:00;32.50;;;31.10;;
33066;SDS011;19428;49.024;8.366;2022-09-24T08:40:28;33.55;;;32.20;;
33066;SDS011;19428;49.024;8.366;2022-09-24T08:42:59;31.67;;;30.45;;
33066;SDS011;19428;49.024;8.366;2022-09-24T08:45:38;27.00;;;26.00;;
33066;SDS011;19428;49.024;8.366;2022-09-24T08:48:26;21.52;;;20.73;;
33066;SDS011;19428;49.024;8.366;2022-09-24T08:50:57;18.27;;;17.67;;
33066;SDS011;19428;49.024;8.366;2022-09-24T08:56:25;16.88;;;16.33;;
33066;SDS011;19428;49.024;8.366;2022-09-24T09:04:09;20.30;;;19.60;;
33066;SDS011;19428;49.024;8.366;2022-09-24T09:11:55;36.05;;;34.50;;
33066;SDS011;19428;49.024;8.366;2022-09-24T09:14:29;43.08;;;41.15;;
33066;SDS011;19428;49.024;8.366;2022-09-24T09:20:02;34.08;;;32.65;;
33066;SDS011;19428;49.024;8.366;2022-09-24T09:22:35;35.63;;;34.17;;
33066;SDS011;19428;49.024;8.366;2022-09-24T09:25:12;30.27;;;29.08;;
33066;SDS011;19428;49.024;8.366;2022-09-24T09:27:49;26.92;;;25.83;;
33066;SDS011;19428;49.024;8.366;2022-09-24T09:30:28;21.77;;;20.98;;
33066;SDS011;19428;49.024;8.366;2022-09-24T09:33:18;18.80;;;18.20;;
33066;SDS011;19428;49.024;8.366;2022-09-24T09:35:57;16.80;;;16.25;;
33066;SDS011;19428;49.024;8.366;2022-09-24T09:38:46;20.23;;;19.45;;
33066;SDS011;19428;49.024;8.366;2022-09-24T09:41:37;23.25;;;22.40;;
33066;SDS011;19428;49.024;8.366;2022-09-24T09:44:17;30.08;;;28.88;;
33066;SDS011;19428;49.024;8.366;2022-09-24T09:46:52;34.90;;;33.45;;
33066;SDS011;19428;49.024;8.366;2022-09-24T09:49:21;43.53;;;41.65;;
33066;SDS011;19428;49.024;8.366;2022-09-24T09:51:52;50.13;;;47.95;;
33066;SDS011;19428;49.024;8.366;2022-09-24T09:54:21;51.63;;;49.40;;
33066;SDS011;19428;49.024;8.366;2022-09-24T09:57:00;52.58;;;50.30;;
33066;SDS011;19428;49.024;8.366;2022-09-24T09:59:27;60.65;;;57.95;;
33066;SDS011;19428;49.024;8.366;2022-09-24T10:01:55;78.82;;;75.30;;
33066;SDS011;19428;49.024;8.366;2022-09-24T10:07:09;56.30;;;53.90;;
33066;SDS011;19428;49.024;8.366;2022-09-24T10:09:41;61.78;;;59.10;;
33066;SDS011;19428;49.024;8.366;2022-09-24T10:12:16;60.35;;;57.80;;
33066;SDS011;19428;49.024;8.366;2022-09-24T10:17:20;58.08;;;55.63;;
33066;SDS011;19428;49.024;8.366;2022-09-24T10:19:48;63.30;;;60.63;;
33066;SDS011;19428;49.024;8.366;2022-09-24T10:22:24;59.70;;;57.25;;
33066;SDS011;19428;49.024;8.366;2022-09-24T10:27:21;53.22;;;51.05;;
33066;SDS011;19428;49.024;8.366;2022-09-24T10:30:12;51.67;;;49.60;;
33066;SDS011;19428;49.024;8.366;2022-09-24T10:33:00;54.83;;;52.55;;
33066;SDS011;19428;49.024;8.366;2022-09-24T10:35:28;55.47;;;53.13;;
33066;SDS011;19428;49.024;8.366;2022-09-24T10:37:56;66.20;;;63.45;;
33066;SDS011;19428;49.024;8.366;2022-09-24T10:40:24;59.80;;;57.33;;
33066;SDS011;19428;49.024;8.366;2022-09-24T10:42:55;58.22;;;55.85;;
33066;SDS011;19428;49.024;8.366;2022-09-24T10:45:21;61.70;;;59.15;;
33066;SDS011;19428;49.024;8.366;2022-09-24T10:53:59;54.45;;;52.25;;
33066;SDS011;19428;49.024;8.366;2022-09-24T11:04:55;54.88;;;52.58;;
33066;SDS011;19428;49.024;8.366;2022-09-24T11:07:28;54.05;;;51.80;;
33066;SDS011;19428;49.024;8.366;2022-09-24T11:12:50;60.97;;;58.47;;
33066;SDS011;19428;49.024;8.366;2022-09-24T11:21:04;57.78;;;55.40;;
33066;SDS011;19428;49.024;8.366;2022-09-24T11:32:29;63.90;;;61.25;;
33066;SDS011;19428;49.024;8.366;2022-09-24T11:46:49;78.28;;;74.95;;
33066;SDS011;19428;49.024;8.366;2022-09-24T11:49:59;83.25;;;79.60;;
33066;SDS011;19428;49.024;8.366;2022-09-24T11:52:46;80.07;;;76.68;;
33066;SDS011;19428;49.024;8.366;2022-09-24T11:55:22;81.93;;;78.40;;
33066;SDS011;19428;49.024;8.366;2022-09-24T12:03:50;77.00;;;73.70;;
33066;SDS011;19428;49.024;8.366;2022-09-24T12:07:07;77.55;;;74.30;;
33066;SDS011;19428;49.024;8.366;2022-09-24T12:09:34;63.38;;;60.80;;
33066;SDS011;19428;49.024;8.366;2022-09-24T12:12:07;56.85;;;54.50;;
33066;SDS011;19428;49.024;8.366;2022-09-24T12:14:42;58.22;;;55.35;;
33066;SDS011;19428;49.024;8.366;2022-09-24T12:17:42;60.03;;;57.60;;
33066;SDS011;19428;49.024;8.366;2022-09-24T12:20:28;57.40;;;55.05;;
33066;SDS011;19428;49.024;8.366;2022-09-24T12:22:59;56.08;;;53.78;;
33066;SDS011;19428;49.024;8.366;2022-09-24T12:25:33;45.03;;;43.22;;
33066;SDS011;19428;49.024;8.366;2022-09-24T12:28:04;36.15;;;34.75;;
33066;SDS011;19428;49.024;8.366;2022-09-24T12:30:37;31.05;;;29.88;;
33066;SDS011;19428;49.024;8.366;2022-09-24T12:33:33;32.67;;;31.45;;
33066;SDS011;19428;49.024;8.366;2022-09-24T12:38:41;30.50;;;29.30;;
33066;SDS011;19428;49.024;8.366;2022-09-24T12:46:44;28.40;;;27.35;;
33066;SDS011;19428;49.024;8.366;2022-09-24T12:51:42;29.33;;;28.23;;
33066;SDS011;19428;49.024;8.366;2022-09-24T12:54:22;29.27;;;28.17;;
33066;SDS011;19428;49.024;8.366;2022-09-24T12:57:14;32.38;;;31.10;;
33066;SDS011;19428;49.024;8.366;2022-09-24T13:02:22;32.10;;;30.90;;
33066;SDS011;19428;49.024;8.366;2022-09-24T13:10:23;26.30;;;25.35;;
33066;SDS011;19428;49.024;8.366;2022-09-24T13:12:51;26.13;;;25.20;;
33066;SDS011;19428;49.024;8.366;2022-09-24T13:20:35;21.42;;;20.52;;
33066;SDS011;19428;49.024;8.366;2022-09-24T13:25:55;18.98;;;18.33;;
33066;SDS011;19428;49.024;8.366;2022-09-24T13:28:28;22.73;;;21.92;;
33066;SDS011;19428;49.024;8.366;2022-09-24T13:31:48;19.00;;;18.40;;
33066;SDS011;19428;49.024;8.366;2022-09-24T13:33:53;20.83;;;20.13;;
33066;SDS011;19428;49.024;8.366;2022-09-24T13:36:32;24.90;;;23.98;;
33066;SDS011;19428;49.024;8.366;2022-09-24T13:39:19;25.50;;;24.60;;
33066;SDS011;19428;49.024;8.366;2022-09-24T13:44:46;25.05;;;24.15;;
33066;SDS011;19428;49.024;8.366;2022-09-24T13:56:04;11.25;;;10.95;;
33066;SDS011;19428;49.024;8.366;2022-09-24T13:58:36;12.48;;;12.07;;
33066;SDS011;19428;49.024;8.366;2022-09-24T14:01:04;12.52;;;12.13;;
33066;SDS011;19428;49.024;8.366;2022-09-24T14:03:36;10.80;;;10.50;;
33066;SDS011;19428;49.024;8.366;2022-09-24T14:06:10;12.63;;;12.23;;
33066;SDS011;19428;49.024;8.366;2022-09-24T14:08:39;13.20;;;12.80;;
33066;SDS011;19428;49.024;8.366;2022-09-24T14:11:14;12.95;;;12.55;;
33066;SDS011;19428;49.024;8.366;2022-09-24T14:13:44;14.52;;;14.05;;
33066;SDS011;19428;49.024;8.366;2022-09-24T14:16:14;17.20;;;16.60;;
33066;SDS011;19428;49.024;8.366;2022-09-24T14:18:43;19.88;;;19.20;;
33066;SDS011;19428;49.024;8.366;2022-09-24T14:23:57;14.73;;;14.25;;
33066;SDS011;19428;49.024;8.366;2022-09-24T14:26:30;12.40;;;12.00;;
33066;SDS011;19428;49.024;8.366;2022-09-24T14:29:02;13.23;;;12.82;;
33066;SDS011;19428;49.024;8.366;2022-09-24T14:31:32;10.57;;;10.27;;
33066;SDS011;19428;49.024;8.366;2022-09-24T14:34:05;10.20;;;9.90;;
33066;SDS011;19428;49.024;8.366;2022-09-24T14:36:33;12.48;;;12.07;;
33066;SDS011;19428;49.024;8.366;2022-09-24T14:39:02;10.60;;;10.30;;
33066;SDS011;19428;49.024;8.366;2022-09-24T14:41:33;10.73;;;10.43;;
33066;SDS011;19428;49.024;8.366;2022-09-24T14:44:01;10.27;;;9.98;;
33066;SDS011;19428;49.024;8.366;2022-09-24T14:46:34;11.20;;;10.90;;
33066;SDS011;19428;49.024;8.366;2022-09-24T14:49:19;12.07;;;11.70;;
33066;SDS011;19428;49.024;8.366;2022-09-24T14:52:20;12.60;;;12.20;;
33066;SDS011;19428;49.024;8.366;2022-09-24T14:54:59;13.27;;;12.88;;
33066;SDS011;19428;49.024;8.366;2022-09-24T14:57:35;13.75;;;13.35;;
33066;SDS011;19428;49.024;8.366;2022-09-24T15:00:03;20.15;;;19.45;;
33066;SDS011;19428;49.024;8.366;2022-09-24T15:03:00;15.93;;;15.43;;
33066;SDS011;19428;49.024;8.366;2022-09-24T15:05:30;17.88;;;17.27;;
33066;SDS011;19428;49.024;8.366;2022-09-24T15:10:50;19.85;;;19.15;;
33066;SDS011;19428;49.024;8.366;2022-09-24T15:15:47;15.68;;;15.18;;
33066;SDS011;19428;49.024;8.366;2022-09-24T15:18:15;21.60;;;20.83;;
33066;SDS011;19428;49.024;8.366;2022-09-24T15:20:43;20.13;;;19.42;;
33066;SDS011;19428;49.024;8.366;2022-09-24T15:23:09;23.17;;;22.38;;
33066;SDS011;19428;49.024;8.366;2022-09-24T15:25:41;31.60;;;30.42;;
33066;SDS011;19428;49.024;8.366;2022-09-24T15:28:11;35.63;;;34.30;;
33066;SDS011;19428;49.024;8.366;2022-09-24T15:30:40;37.97;;;36.53;;
33066;SDS011;19428;49.024;8.366;2022-09-24T15:33:09;42.50;;;40.85;;
33066;SDS011;19428;49.024;8.366;2022-09-24T15:35:36;45.50;;;43.67;;
33066;SDS011;19428;49.024;8.366;2022-09-24T15:38:02;47.95;;;46.03;;
33066;SDS011;19428;49.024;8.366;2022-09-24T15:40:28;55.17;;;52.92;;
33066;SDS011;19428;49.024;8.366;2022-09-24T15:42:57;55.50;;;53.28;;
33066;SDS011;19428;49.024;8.366;2022-09-24T15:45:23;57.65;;;55.28;;
33066;SDS011;19428;49.024;8.366;2022-09-24T15:47:50;59.40;;;56.97;;
33066;SDS011;19428;49.024;8.366;2022-09-24T15:50:18;59.08;;;56.67;;
33066;SDS011;19428;49.024;8.366;2022-09-24T15:52:46;60.60;;;58.13;;
33066;SDS011;19428;49.024;8.366;2022-09-24T15:55:17;57.33;;;54.97;;
33066;SDS011;19428;49.024;8.366;2022-09-24T15:57:44;63.30;;;60.65;;
33066;SDS011;19428;49.024;8.366;2022-09-24T16:00:14;60.10;;;57.58;;
33066;SDS011;19428;49.024;8.366;2022-09-24T16:02:42;175.35;;;167.35;;
33066;SDS011;19428;49.024;8.366;2022-09-24T16:05:11;185.77;;;177.35;;
33066;SDS011;19428;49.024;8.366;2022-09-24T16:07:38;167.68;;;160.02;;
33066;SDS011;19428;49.024;8.366;2022-09-24T16:10:04;173.07;;;165.10;;
33066;SDS011;19428;49.024;8.366;2022-09-24T16:12:30;48.28;;;46.33;;
33066;SDS011;19428;49.024;8.366;2022-09-24T16:14:56;53.60;;;51.40;;
33066;SDS011;19428;49.024;8.366;2022-09-24T16:17:23;56.65;;;54.28;;
33066;SDS011;19428;49.024;8.366;2022-09-24T16:19:49;52.90;;;50.78;;
33066;SDS011;19428;49.024;8.366;2022-09-24T16:22:15;55.15;;;52.80;;
33066;SDS011;19428;49.024;8.366;2022-09-24T16:24:41;57.53;;;55.13;;
33066;SDS011;19428;49.024;8.366;2022-09-24T16:27:06;58.92;;;56.45;;
33066;SDS011;19428;49.024;8.366;2022-09-24T16:29:32;60.97;;;58.35;;
33066;SDS011;19428;49.024;8.366;2022-09-24T16:31:58;61.33;;;58.67;;
33066;SDS011;19428;49.024;8.366;2022-09-24T16:34:25;64.45;;;61.70;;
33066;SDS011;19428;49.024;8.366;2022-09-24T16:36:51;63.17;;;60.45;;
33066;SDS011;19428;49.024;8.366;2022-09-24T16:39:17;63.40;;;60.60;;
33066;SDS011;19428;49.024;8.366;2022-09-24T16:41:43;62.90;;;60.13;;
33066;SDS011;19428;49.024;8.366;2022-09-24T16:44:15;64.22;;;61.42;;
33066;SDS011;19428;49.024;8.366;2022-09-24T16:46:44;66.13;;;63.22;;
33066;SDS011;19428;49.024;8.366;2022-09-24T16:49:10;63.35;;;60.60;;
33066;SDS011;19428;49.024;8.366;2022-09-24T16:51:36;64.32;;;61.50;;
33066;SDS011;19428;49.024;8.366;2022-09-24T16:54:02;63.38;;;60.63;;
33066;SDS011;19428;49.024;8.366;2022-09-24T16:56:34;63.20;;;60.40;;
33066;SDS011;19428;49.024;8.366;2022-09-24T16:59:07;58.05;;;55.55;;
33066;SDS011;19428;49.024;8.366;2022-09-24T17:01:34;61.63;;;58.72;;